METAR Data
IDs: Format: Raw Decoded Include TAF

Data at: 1052 UTC 18 Jan 2022

KFMM 181035Z AUTO 34007KT 10SM CLR M04/M05 A2980 RMK AO2
KFMM 181015Z AUTO 34007KT 10SM CLR M04/M06 A2981 RMK AO2
KFMM 180955Z AUTO 36007KT 10SM CLR M04/M06 A2981 RMK AO2
KFMM 180935Z AUTO 33004KT 10SM CLR M03/M06 A2982 RMK AO2
KFMM 180915Z AUTO 32006KT 10SM CLR M03/M06 A2982 RMK AO2
KFMM 180855Z AUTO 32008KT 10SM CLR M02/M06 A2982 RMK AO2
KFMM 180835Z AUTO 32007KT 10SM CLR M01/M07 A2982 RMK AO2
KFMM 180815Z AUTO 34006KT 10SM CLR M02/M07 A2982 RMK AO2
KFMM 180755Z AUTO 32006KT 10SM CLR 00/M07 A2983 RMK AO2
KFMM 180735Z AUTO 30006KT 10SM CLR 01/M06 A2984 RMK AO2
KFMM 180715Z AUTO 31005KT 10SM CLR 01/M06 A2984 RMK AO2
KFMM 180655Z AUTO 32006KT 10SM CLR M01/M05 A2985 RMK AO2
KFMM 180635Z AUTO 30004KT 10SM CLR M02/M06 A2986 RMK AO2 LTG DSNT S
KFMM 180615Z AUTO 33008KT 10SM CLR M01/M07 A2987 RMK AO2
KFMM 180555Z AUTO 31009KT 10SM CLR 01/M07 A2987 RMK AO2
KFMM 180535Z AUTO 33008KT 10SM CLR 02/M08 A2987 RMK AO2
KFMM 180515Z AUTO 35006KT 10SM CLR 02/M07 A2987 RMK AO2
KFMM 180455Z AUTO 34007KT 10SM CLR M00/M06 A2987 RMK AO2
KFMM 180435Z AUTO 34005KT 10SM CLR 01/M07 A2987 RMK AO2
KFMM 180415Z AUTO 01005KT 10SM CLR 00/M05 A2988 RMK AO2
KFMM 180355Z AUTO 36009KT 10SM CLR M01/M05 A2988 RMK AO2
KFMM 180335Z AUTO 34005KT 10SM CLR M00/M06 A2988 RMK AO2
KFMM 180315Z AUTO 32005KT 10SM CLR 01/M07 A2988 RMK AO2
KFMM 180255Z AUTO 01005KT 10SM CLR 04/M07 A2989 RMK AO2
KFMM 180235Z AUTO 35004KT 10SM CLR 02/M07 A2989 RMK AO2
KFMM 180215Z AUTO 34006KT 10SM CLR 03/M07 A2989 RMK AO2 LTG DSNT S
KFMM 180155Z AUTO 34005KT 10SM CLR 04/M07 A2988 RMK AO2
KFMM 180135Z AUTO 00000KT 10SM CLR 06/M07 A2988 RMK AO2
KFMM 180115Z AUTO 32006KT 10SM CLR 07/M07 A2987 RMK AO2
KFMM 180055Z AUTO 00000KT 10SM CLR 06/M07 A2987 RMK AO2
KFMM 180035Z AUTO 00000KT 10SM CLR 09/M07 A2987 RMK AO2
KFMM 180015Z AUTO 14006KT 10SM CLR 08/M07 A2986 RMK AO2
KFMM 172355Z AUTO 18007KT 10SM CLR 08/M07 A2986 RMK AO2
KFMM 172335Z AUTO 18007KT 10SM CLR 09/M07 A2986 RMK AO2
KFMM 172315Z AUTO 17007KT 9SM CLR 10/M07 A2986 RMK AO2
KFMM 172255Z AUTO 19005KT 10SM CLR 12/M07 A2986 RMK AO2
KFMM 172235Z AUTO 18006KT 10SM CLR 14/M08 A2986 RMK AO2
KFMM 172215Z AUTO 21004KT 10SM CLR 15/M08 A2988 RMK AO2
KFMM 172155Z AUTO 00000KT 10SM CLR 16/M09 A2987 RMK AO2
KFMM 172135Z AUTO 00000KT 10SM CLR 15/M09 A2987 RMK AO2
KFMM 172115Z AUTO 21005KT 10SM CLR 14/M08 A2987 RMK AO2
KFMM 172055Z AUTO 00000KT 10SM CLR 14/M08 A2987 RMK AO2
KFMM 172035Z AUTO 33006KT 10SM CLR 13/M07 A2987 RMK AO2
KFMM 172015Z AUTO 32006KT 10SM CLR 12/M06 A2988 RMK AO2 LTG DSNT S
KFMM 171955Z AUTO 31004KT 10SM CLR 11/M07 A2989 RMK AO2 LTG DSNT S
KFMM 171935Z AUTO 31007KT 10SM CLR 11/M06 A2991 RMK AO2
KFMM 171915Z AUTO 32008KT 10SM CLR 10/M06 A2991 RMK AO2
KFMM 171855Z AUTO 32006KT 10SM CLR 09/M05 A2991 RMK AO2
KFMM 171835Z AUTO 31007KT 10SM CLR 07/M05 A2993 RMK AO2
KFMM 171820Z AUTO 32007KT 10SM CLR 06/M05 A2993 RMK AO2
KFMM 171735Z AUTO 33008KT 10SM CLR 03/M03 A2996 RMK AO2
KFMM 171715Z AUTO 32006KT 10SM CLR 01/M04 A2997 RMK AO2 LTG DSNT S
KFMM 171655Z AUTO 31007KT 10SM CLR 00/M04 A2997 RMK AO2
KFMM 171635Z AUTO 29005KT 10SM CLR M01/M04 A2998 RMK AO2
KFMM 171615Z AUTO 33008KT 10SM CLR M04/M06 A2997 RMK AO2
KFMM 171555Z AUTO 32006KT 10SM CLR M04/M06 A2997 RMK AO2
KFMM 171535Z AUTO 27007KT 10SM CLR M05/M07 A2996 RMK AO2 LTG DSNT S
KFMM 171515Z AUTO 32003KT 10SM CLR M07/M08 A2996 RMK AO2
KFMM 171455Z AUTO 32011KT 10SM CLR M08/M09 A2995 RMK AO2
KFMM 171435Z AUTO 33011KT 10SM CLR M08/M09 A2994 RMK AO2
KFMM 171415Z AUTO 32009KT 10SM CLR M08/M09 A2995 RMK AO2
KFMM 171355Z AUTO 31010KT 10SM CLR M07/M08 A2994 RMK AO2
KFMM 171335Z AUTO 33012KT 10SM CLR M06/M08 A2995 RMK AO2
KFMM 171315Z AUTO 33013KT 10SM CLR M06/M07 A2994 RMK AO2
KFMM 171255Z AUTO 33013KT 10SM CLR M07/M08 A2994 RMK AO2
KFMM 171235Z AUTO 34014KT 10SM CLR M07/M08 A2994 RMK AO2
KFMM 171215Z AUTO 33012KT 10SM CLR M07/M08 A2994 RMK AO2
KFMM 171155Z AUTO 34014KT 10SM CLR M06/M07 A2994 RMK AO2 LTG DSNT S
KFMM 171135Z AUTO 36012KT 10SM CLR M05/M07 A2994 RMK AO2
KFMM 171115Z AUTO 33009KT 10SM CLR M07/M08 A2995 RMK AO2
KFMM 171055Z AUTO 31010KT 10SM CLR M07/M08 A2996 RMK AO2
KFMM 171035Z AUTO 32009KT 10SM CLR M06/M08 A2997 RMK AO2
KFMM 171015Z AUTO 33010KT 10SM CLR M06/M07 A2999 RMK AO2
KFMM 170955Z AUTO 34007KT 10SM CLR M06/M08 A2999 RMK AO2
KFMM 170935Z AUTO 33007KT 10SM CLR M05/M07 A2999 RMK AO2
KFMM 170915Z AUTO 33005KT 10SM CLR M05/M07 A3000 RMK AO2
KFMM 170855Z AUTO 34007KT 10SM CLR M05/M07 A3001 RMK AO2
KFMM 170835Z AUTO 36010KT 10SM CLR M05/M07 A3002 RMK AO2
KFMM 170815Z AUTO 35009KT 10SM CLR M05/M07 A3003 RMK AO2
KFMM 170755Z AUTO 34007KT 10SM CLR M05/M07 A3003 RMK AO2
KFMM 170735Z AUTO 33007KT 10SM CLR M05/M07 A3005 RMK AO2
KFMM 170715Z AUTO 32006KT 10SM CLR M05/M07 A3006 RMK AO2
KFMM 170655Z AUTO 32006KT 10SM CLR M04/M06 A3007 RMK AO2
KFMM 170635Z AUTO 33005KT 10SM CLR M05/M07 A3008 RMK AO2
KFMM 170555Z AUTO 34004KT 10SM CLR M03/M06 A3009 RMK AO2
KFMM 170535Z AUTO 35006KT 10SM CLR M03/M06 A3009 RMK AO2
KFMM 170515Z AUTO 35007KT 10SM CLR M02/M06 A3010 RMK AO2
KFMM 170455Z AUTO 34006KT 10SM CLR M02/M06 A3010 RMK AO2
KFMM 170435Z AUTO 34005KT 10SM CLR M02/M06 A3011 RMK AO2
KFMM 170415Z AUTO 34005KT 10SM CLR M01/M06 A3011 RMK AO2
KFMM 170355Z AUTO 34004KT 10SM CLR M01/M06 A3012 RMK AO2
KFMM 170335Z AUTO 35006KT 10SM CLR M01/M06 A3012 RMK AO2
KFMM 170315Z AUTO 36007KT 10SM CLR M01/M06 A3013 RMK AO2
KFMM 170255Z AUTO 35007KT 10SM CLR M01/M06 A3013 RMK AO2
KFMM 170235Z AUTO 35006KT 10SM CLR M01/M06 A3014 RMK AO2
KFMM 170215Z AUTO 34006KT 10SM CLR M01/M07 A3014 RMK AO2
KFMM 170155Z AUTO 36004KT 10SM CLR 01/M06 A3014 RMK AO2
KFMM 170135Z AUTO 00000KT 10SM CLR 01/M06 A3014 RMK AO2
KFMM 170115Z AUTO 00000KT 10SM CLR M01/M07 A3013 RMK AO2
KFMM 170055Z AUTO 11005KT 10SM CLR 03/M06 A3011 RMK AO2
KFMM 170035Z AUTO 10006KT 10SM CLR 04/M06 A3011 RMK AO2
KFMM 170015Z AUTO 09006KT 10SM CLR 03/M06 A3011 RMK AO2
KFMM 162355Z AUTO 10005KT 10SM CLR 03/M06 A3010 RMK AO2
KFMM 162335Z AUTO 09009KT 10SM CLR 05/M06 A3010 RMK AO2
KFMM 162315Z AUTO 09011G17KT 10SM CLR 06/M06 A3012 RMK AO2
KFMM 162255Z AUTO 10013G19KT 10SM CLR 07/M06 A3011 RMK AO2